Marcel — ONDP — position and weather

sailwx.info

Track history (hours):
 
Tides and Currents Weather Stations Pressure Air Temp Water Temp Dewpoint Dewpoint Depression Visibility Wind Speed Wind Dir Waves Ship Positions

Marcel

Last reported at 2015-Aug-22 22:25 UTC. Time now 2015-Aug-28 14:51 UTC.
Position N 37°17' W 009°48'.

Length 88 m; draft 5.1 m.

Type: Cargo ship. MMSI: 205439000.

Date/timePositionNaut miles runAvg speedWind from/ knotsBaromVisibWave heightAir tempDewpointWater temp
2015-Aug-22 22:25N 37°17' W 009°48'57 9.5
2015-Aug-22 16:26N 38°13' W 009°60'8 9.4
2015-Aug-22 15:33N 38°21' W 010°01'9 9.4
2015-Aug-22 14:33N 38°30' W 010°03'10 9.5
2015-Aug-22 13:33N 38°40' W 010°05'10 9.7
2015-Aug-22 12:33N 38°50' W 010°05'9 9.5
2015-Aug-22 11:33N 38°59' W 010°06'  
2015-Aug-18 15:09N 50°07' W 001°57'  
2015-Aug-16 07:32N 50°38' E 000°50'2110.7
2015-Aug-16 05:32N 50°55' E 001°11'1010.2
2015-Aug-16 04:33N 51°02' E 001°22'9 8.8
2015-Aug-16 03:33N 51°08' E 001°33'7 7.0
2015-Aug-16 02:33N 51°12' E 001°41'7 6.7
2015-Aug-16 01:33N 51°17' E 001°49'7 7.2
2015-Aug-16 00:33N 51°22' E 001°56'7 7.2
2015-Aug-15 23:32N 51°23' E 002°08'9 8.7
2015-Aug-15 22:29N 51°22' E 002°22'910.1
2015-Aug-15 21:33N 51°23' E 002°37'9 8.8
2015-Aug-15 20:33N 51°22' E 002°51'1610.5
2015-Aug-15 19:03N 51°24' E 003°16'611.4
2015-Aug-15 18:33N 51°25' E 003°25'1110.7
2015-Aug-15 17:33N 51°24' E 003°42'8 8.4
2015-Aug-15 16:33N 51°26' E 003°56'8 8.3
2015-Aug-15 15:33N 51°22' E 004°08'6 6.1
2015-Aug-15 14:33N 51°20' E 004°17'4 3.7
2015-Aug-15 13:34N 51°17' E 004°20'1 1.3
2015-Aug-15 12:33N 51°16' E 004°21'1 1.3
2015-Aug-15 11:34N 51°15' E 004°23'0 0.0
2015-Aug-15 10:29N 51°15' E 004°23'0 0.0
2015-Aug-15 09:33N 51°15' E 004°23'0 0.0
2015-Aug-15 08:29N 51°15' E 004°23'0 0.0
2015-Aug-15 07:33N 51°15' E 004°23'0 0.0
2015-Aug-15 06:28N 51°15' E 004°23'0 0.0
2015-Aug-15 05:32N 51°15' E 004°23'0 0.0
2015-Aug-15 04:30N 51°15' E 004°23'0 0.0
2015-Aug-15 03:33N 51°15' E 004°23'0 0.0
2015-Aug-15 02:28N 51°15' E 004°23'0 0.0
2015-Aug-15 01:33N 51°15' E 004°23'0 0.0
2015-Aug-15 00:34N 51°15' E 004°23'0 0.0
2015-Aug-14 23:27N 51°15' E 004°23'0 0.0
2015-Aug-14 22:31N 51°15' E 004°23'0 0.0
2015-Aug-14 21:32N 51°15' E 004°23'0 0.0
2015-Aug-14 20:29N 51°15' E 004°23'0 0.0
2015-Aug-14 19:33N 51°15' E 004°23'0 0.0
2015-Aug-14 18:28N 51°15' E 004°23'0 0.0
2015-Aug-14 17:32N 51°15' E 004°23'0 0.0
2015-Aug-14 16:31N 51°15' E 004°23'0 0.0
2015-Aug-14 15:26N 51°15' E 004°23'0 0.0
2015-Aug-14 14:29N 51°15' E 004°23'0 0.0
2015-Aug-14 13:31N 51°15' E 004°23'0 0.0
2015-Aug-14 12:27N 51°15' E 004°23'0 0.0
2015-Aug-14 11:32N 51°15' E 004°23'0 0.0
2015-Aug-14 10:28N 51°15' E 004°23'0 0.0
2015-Aug-14 09:32N 51°15' E 004°23'0 0.0
2015-Aug-14 08:28N 51°15' E 004°23'0 0.0
2015-Aug-14 07:29N 51°15' E 004°23'0 0.0
2015-Aug-14 06:30N 51°15' E 004°23'0 0.0
2015-Aug-14 05:32N 51°15' E 004°23'0 0.0
2015-Aug-14 04:27N 51°15' E 004°23'0 0.0
2015-Aug-14 03:29N 51°15' E 004°23'0 0.0
2015-Aug-14 02:33N 51°15' E 004°23'0 0.0
2015-Aug-14 01:31N 51°15' E 004°23'0 0.0
2015-Aug-14 00:33N 51°15' E 004°23'0 0.0
2015-Aug-13 23:32N 51°15' E 004°23'0 0.0
2015-Aug-13 22:26N 51°15' E 004°23'0 0.0
2015-Aug-13 21:30N 51°15' E 004°23'0 0.0
2015-Aug-13 20:26N 51°15' E 004°23'0 0.0
2015-Aug-13 19:30N 51°15' E 004°23'0 0.0
2015-Aug-13 18:30N 51°15' E 004°23'0 0.0
2015-Aug-13 17:30N 51°15' E 004°23'0 0.0
2015-Aug-13 16:29N 51°15' E 004°23'5 5.8
2015-Aug-13 15:33N 51°19' E 004°19'2 1.6
2015-Aug-13 14:33N 51°21' E 004°17'6 5.9
2015-Aug-13 13:33N 51°22' E 004°08'8 8.3
2015-Aug-13 12:33N 51°26' E 003°56'8 8.3
2015-Aug-13 11:34N 51°24' E 003°43'1110.6
2015-Aug-13 10:33N 51°25' E 003°25'10 9.1
2015-Aug-13 09:28N 51°23' E 003°10'7 7.5
2015-Aug-13 08:33N 51°21' E 002°59'7 6.7
2015-Aug-13 07:34N 51°21' E 002°48'7 6.6
2015-Aug-13 06:33N 51°22' E 002°38'6 6.2
2015-Aug-13 05:33N 51°21' E 002°28'6 6.2
2015-Aug-13 04:33N 51°18' E 002°20'7 7.0
2015-Aug-13 03:33N 51°15' E 002°10'7 7.5
2015-Aug-13 02:34N 51°11' E 001°60'8 8.0
2015-Aug-13 01:33N 51°07' E 001°49'9 8.6
2015-Aug-13 00:34N 51°00' E 001°40'  
Track history (hours):
 
Tides and Currents Weather Stations Pressure Air Temp Water Temp Dewpoint Dewpoint Depression Visibility Wind Speed Wind Dir Waves Ship Positions

Marcel

Last reported at 2015-Aug-22 22:25 UTC. Time now 2015-Aug-28 14:51 UTC.
Position N 37°17' W 009°48'.

Length 88 m; draft 5.1 m.

Type: Cargo ship. MMSI: 205439000.

Date/timePositionNaut miles runAvg speedWind from/ knotsBaromVisibWave heightAir tempDewpointWater temp
2015-Aug-22 22:25N 37°17' W 009°48'57 9.5
2015-Aug-22 16:26N 38°13' W 009°60'8 9.4
2015-Aug-22 15:33N 38°21' W 010°01'9 9.4
2015-Aug-22 14:33N 38°30' W 010°03'10 9.5
2015-Aug-22 13:33N 38°40' W 010°05'10 9.7
2015-Aug-22 12:33N 38°50' W 010°05'9 9.5
2015-Aug-22 11:33N 38°59' W 010°06'  
2015-Aug-18 15:09N 50°07' W 001°57'  
2015-Aug-16 07:32N 50°38' E 000°50'2110.7
2015-Aug-16 05:32N 50°55' E 001°11'1010.2
2015-Aug-16 04:33N 51°02' E 001°22'9 8.8
2015-Aug-16 03:33N 51°08' E 001°33'7 7.0
2015-Aug-16 02:33N 51°12' E 001°41'7 6.7
2015-Aug-16 01:33N 51°17' E 001°49'7 7.2
2015-Aug-16 00:33N 51°22' E 001°56'7 7.2
2015-Aug-15 23:32N 51°23' E 002°08'9 8.7
2015-Aug-15 22:29N 51°22' E 002°22'910.1
2015-Aug-15 21:33N 51°23' E 002°37'9 8.8
2015-Aug-15 20:33N 51°22' E 002°51'1610.5
2015-Aug-15 19:03N 51°24' E 003°16'611.4
2015-Aug-15 18:33N 51°25' E 003°25'1110.7
2015-Aug-15 17:33N 51°24' E 003°42'8 8.4
2015-Aug-15 16:33N 51°26' E 003°56'8 8.3
2015-Aug-15 15:33N 51°22' E 004°08'6 6.1
2015-Aug-15 14:33N 51°20' E 004°17'4 3.7
2015-Aug-15 13:34N 51°17' E 004°20'1 1.3
2015-Aug-15 12:33N 51°16' E 004°21'1 1.3
2015-Aug-15 11:34N 51°15' E 004°23'0 0.0
2015-Aug-15 10:29N 51°15' E 004°23'0 0.0
2015-Aug-15 09:33N 51°15' E 004°23'0 0.0
2015-Aug-15 08:29N 51°15' E 004°23'0 0.0
2015-Aug-15 07:33N 51°15' E 004°23'0 0.0
2015-Aug-15 06:28N 51°15' E 004°23'0 0.0
2015-Aug-15 05:32N 51°15' E 004°23'0 0.0
2015-Aug-15 04:30N 51°15' E 004°23'0 0.0
2015-Aug-15 03:33N 51°15' E 004°23'0 0.0
2015-Aug-15 02:28N 51°15' E 004°23'0 0.0
2015-Aug-15 01:33N 51°15' E 004°23'0 0.0
2015-Aug-15 00:34N 51°15' E 004°23'0 0.0
2015-Aug-14 23:27N 51°15' E 004°23'0 0.0
2015-Aug-14 22:31N 51°15' E 004°23'0 0.0
2015-Aug-14 21:32N 51°15' E 004°23'0 0.0
2015-Aug-14 20:29N 51°15' E 004°23'0 0.0
2015-Aug-14 19:33N 51°15' E 004°23'0 0.0
2015-Aug-14 18:28N 51°15' E 004°23'0 0.0
2015-Aug-14 17:32N 51°15' E 004°23'0 0.0
2015-Aug-14 16:31N 51°15' E 004°23'0 0.0
2015-Aug-14 15:26N 51°15' E 004°23'0 0.0
2015-Aug-14 14:29N 51°15' E 004°23'0 0.0
2015-Aug-14 13:31N 51°15' E 004°23'0 0.0
2015-Aug-14 12:27N 51°15' E 004°23'0 0.0
2015-Aug-14 11:32N 51°15' E 004°23'0 0.0
2015-Aug-14 10:28N 51°15' E 004°23'0 0.0
2015-Aug-14 09:32N 51°15' E 004°23'0 0.0
2015-Aug-14 08:28N 51°15' E 004°23'0 0.0
2015-Aug-14 07:29N 51°15' E 004°23'0 0.0
2015-Aug-14 06:30N 51°15' E 004°23'0 0.0
2015-Aug-14 05:32N 51°15' E 004°23'0 0.0
2015-Aug-14 04:27N 51°15' E 004°23'0 0.0
2015-Aug-14 03:29N 51°15' E 004°23'0 0.0
2015-Aug-14 02:33N 51°15' E 004°23'0 0.0
2015-Aug-14 01:31N 51°15' E 004°23'0 0.0
2015-Aug-14 00:33N 51°15' E 004°23'0 0.0
2015-Aug-13 23:32N 51°15' E 004°23'0 0.0
2015-Aug-13 22:26N 51°15' E 004°23'0 0.0
2015-Aug-13 21:30N 51°15' E 004°23'0 0.0
2015-Aug-13 20:26N 51°15' E 004°23'0 0.0
2015-Aug-13 19:30N 51°15' E 004°23'0 0.0
2015-Aug-13 18:30N 51°15' E 004°23'0 0.0
2015-Aug-13 17:30N 51°15' E 004°23'0 0.0
2015-Aug-13 16:29N 51°15' E 004°23'5 5.8
2015-Aug-13 15:33N 51°19' E 004°19'2 1.6
2015-Aug-13 14:33N 51°21' E 004°17'6 5.9
2015-Aug-13 13:33N 51°22' E 004°08'8 8.3
2015-Aug-13 12:33N 51°26' E 003°56'8 8.3
2015-Aug-13 11:34N 51°24' E 003°43'1110.6
2015-Aug-13 10:33N 51°25' E 003°25'10 9.1
2015-Aug-13 09:28N 51°23' E 003°10'7 7.5
2015-Aug-13 08:33N 51°21' E 002°59'7 6.7
2015-Aug-13 07:34N 51°21' E 002°48'7 6.6
2015-Aug-13 06:33N 51°22' E 002°38'6 6.2
2015-Aug-13 05:33N 51°21' E 002°28'6 6.2
2015-Aug-13 04:33N 51°18' E 002°20'7 7.0
2015-Aug-13 03:33N 51°15' E 002°10'7 7.5
2015-Aug-13 02:34N 51°11' E 001°60'8 8.0
2015-Aug-13 01:33N 51°07' E 001°49'9 8.6
2015-Aug-13 00:34N 51°00' E 001°40'  

Dump ship's entire track history